Time;durP1;ratioP1;P1;durP2;ratioP2;P2;SDS_P1;SDS_P2;PMS_P1;PMS_P2;Temp;Humidity;BMP_temperature;BMP_pressure;BME280_temperature;BME280_humidity;BME280_pressure;Samples;Min_cycle;Max_cycle;Signal;HPM_P1;HPM_P2
2023/01/02 00:01:45;;;;;;;2.72;1.50;;;;;;;;;;4972222;28;20112;-87
2023/01/02 00:04:10;;;;;;;2.00;1.30;;;;;;;;;;4971438;28;20034;-86
2023/01/02 00:06:36;;;;;;;1.75;1.23;;;;;;;;;;4990824;28;20035;-87
2023/01/02 00:09:04;;;;;;;2.10;1.40;;;;;;;;;;4980736;28;20403;-87
2023/01/02 00:11:29;;;;;;;4.22;1.50;;;;;;;;;;4973312;28;20113;-88
2023/01/02 00:13:55;;;;;;;2.00;1.27;;;;;;;;;;4971775;28;20121;-86
2023/01/02 00:16:20;;;;;;;3.10;1.70;;;;;;;;;;4973068;28;20057;-88
2023/01/02 00:18:46;;;;;;;3.63;1.60;;;;;;;;;;4984645;28;20045;-86
2023/01/02 00:21:11;;;;;;;1.90;1.38;;;;;;;;;;4973421;28;20492;-87
2023/01/02 00:23:37;;;;;;;2.50;1.48;;;;;;;;;;4973139;28;20035;-87
2023/01/02 00:26:06;;;;;;;2.35;1.35;;;;;;;;;;4972958;28;20045;-87
2023/01/02 00:28:32;;;;;;;3.72;1.40;;;;;;;;;;4973024;28;20043;-88
2023/01/02 00:31:04;;;;;;;1.98;1.30;;;;;;;;;;4973243;28;20042;-86
2023/01/02 00:33:29;;;;;;;2.65;1.40;;;;;;;;;;4973414;28;20054;-86
2023/01/02 00:35:54;;;;;;;2.33;1.23;;;;;;;;;;4971352;28;20515;-89
2023/01/02 00:38:20;;;;;;;1.95;1.20;;;;;;;;;;4988362;28;20089;-86
2023/01/02 00:40:45;;;;;;;2.55;1.30;;;;;;;;;;4971958;28;20077;-86
2023/01/02 00:43:11;;;;;;;3.38;1.58;;;;;;;;;;4973120;28;20030;-86
2023/01/02 00:45:36;;;;;;;2.20;1.25;;;;;;;;;;4972437;28;20035;-86
2023/01/02 00:48:02;;;;;;;1.92;1.20;;;;;;;;;;4972941;28;20499;-87
2023/01/02 00:50:27;;;;;;;1.98;1.25;;;;;;;;;;4972164;28;20069;-87
2023/01/02 00:52:53;;;;;;;2.90;1.30;;;;;;;;;;4973108;28;20638;-87
2023/01/02 00:55:18;;;;;;;2.47;1.40;;;;;;;;;;4973787;28;20077;-86
2023/01/02 00:57:44;;;;;;;2.15;1.38;;;;;;;;;;4976822;28;20518;-86
2023/01/02 01:00:10;;;;;;;2.92;1.20;;;;;;;;;;4991628;28;20061;-86
2023/01/02 01:02:35;;;;;;;1.77;1.30;;;;;;;;;;4976560;28;20030;-85
2023/01/02 01:05:01;;;;;;;1.95;1.30;;;;;;;;;;4975987;28;20038;-85
2023/01/02 01:07:28;;;;;;;4.70;1.27;;;;;;;;;;4985167;28;20038;-87
2023/01/02 01:09:53;;;;;;;3.85;1.30;;;;;;;;;;4976706;28;20053;-88
2023/01/02 01:12:19;;;;;;;1.88;1.20;;;;;;;;;;4976351;28;20487;-87
2023/01/02 01:14:44;;;;;;;2.30;1.40;;;;;;;;;;4975761;28;20041;-87
2023/01/02 01:17:10;;;;;;;3.40;1.30;;;;;;;;;;4976366;28;20407;-87
2023/01/02 01:19:35;;;;;;;2.78;1.50;;;;;;;;;;4975951;28;20037;-88
2023/01/02 01:22:01;;;;;;;1.92;1.27;;;;;;;;;;4975030;28;20050;-87
2023/01/02 01:24:27;;;;;;;1.90;1.20;;;;;;;;;;4974239;28;20089;-87
2023/01/02 01:26:52;;;;;;;2.45;1.23;;;;;;;;;;4991125;28;20122;-86
2023/01/02 01:29:18;;;;;;;2.42;1.38;;;;;;;;;;4974730;28;20134;-88
2023/01/02 01:31:44;;;;;;;1.60;1.23;;;;;;;;;;4987530;28;20142;-85
2023/01/02 01:34:12;;;;;;;2.33;1.40;;;;;;;;;;4974728;28;20027;-86
2023/01/02 01:36:38;;;;;;;1.95;1.40;;;;;;;;;;4990990;28;20038;-87
2023/01/02 01:39:04;;;;;;;2.03;1.27;;;;;;;;;;4976066;28;20030;-86
2023/01/02 01:41:29;;;;;;;2.72;1.40;;;;;;;;;;4976026;28;20552;-85
2023/01/02 01:43:57;;;;;;;1.58;1.05;;;;;;;;;;4990553;28;20084;-84
2023/01/02 01:46:37;;;;;;;1.25;0.98;;;;;;;;;;4974643;28;20038;-86
2023/01/02 01:49:02;;;;;;;2.60;1.20;;;;;;;;;;4975865;28;20034;-85
2023/01/02 01:51:31;;;;;;;2.33;1.30;;;;;;;;;;4990785;28;20041;-84
2023/01/02 01:54:05;;;;;;;2.45;1.30;;;;;;;;;;4974229;28;20603;-86
2023/01/02 01:56:34;;;;;;;1.38;1.10;;;;;;;;;;4990870;28;20039;-87
2023/01/02 01:59:01;;;;;;;2.03;1.20;;;;;;;;;;4974389;28;20045;-84
2023/01/02 02:01:26;;;;;;;1.52;1.20;;;;;;;;;;4990470;28;20038;-87
2023/01/02 02:03:52;;;;;;;1.73;1.02;;;;;;;;;;4975514;28;20039;-87
2023/01/02 02:06:18;;;;;;;1.83;1.08;;;;;;;;;;4973853;28;20082;-86
2023/01/02 02:09:08;;;;;;;1.40;1.02;;;;;;;;;;4985170;28;20045;-87
2023/01/02 02:11:34;;;;;;;2.00;1.20;;;;;;;;;;4975601;28;20102;-87
2023/01/02 02:13:59;;;;;;;2.80;1.10;;;;;;;;;;4973488;28;20035;-86
2023/01/02 02:16:42;;;;;;;2.08;1.20;;;;;;;;;;4973967;28;20019;-87
2023/01/02 02:19:26;;;;;;;3.30;1.50;;;;;;;;;;4990102;28;20041;-86
2023/01/02 02:22:06;;;;;;;1.73;1.20;;;;;;;;;;4974039;28;20042;-86
2023/01/02 02:24:50;;;;;;;2.60;1.20;;;;;;;;;;4974526;28;20035;-88
2023/01/02 02:27:45;;;;;;;1.67;1.05;;;;;;;;;;4975102;28;20117;-88
2023/01/02 02:30:10;;;;;;;2.20;1.23;;;;;;;;;;4974353;28;20058;-87
2023/01/02 02:32:39;;;;;;;2.45;1.30;;;;;;;;;;4975023;28;20046;-87
2023/01/02 02:35:28;;;;;;;2.05;1.20;;;;;;;;;;4972954;28;20483;-86
2023/01/02 02:38:13;;;;;;;2.20;1.40;;;;;;;;;;4973390;28;20039;-86
2023/01/02 02:40:41;;;;;;;1.40;1.02;;;;;;;;;;4974956;28;20109;-86
2023/01/02 02:43:13;;;;;;;2.00;1.30;;;;;;;;;;4989820;28;20069;-88
2023/01/02 02:46:08;;;;;;;1.80;1.20;;;;;;;;;;4985465;28;20140;-85
2023/01/02 02:49:08;;;;;;;1.95;1.10;;;;;;;;;;4974912;28;20045;-85
2023/01/02 02:51:40;;;;;;;1.92;1.20;;;;;;;;;;4974337;28;20053;-85
2023/01/02 02:54:17;;;;;;;2.33;1.20;;;;;;;;;;4974109;28;20173;-85
2023/01/02 02:56:44;;;;;;;1.90;1.13;;;;;;;;;;4974794;28;20049;-85
2023/01/02 02:59:10;;;;;;;1.95;1.20;;;;;;;;;;4974687;28;20255;-86
2023/01/02 03:01:36;;;;;;;1.35;1.08;;;;;;;;;;4973339;28;20035;-88
2023/01/02 03:04:02;;;;;;;1.88;1.20;;;;;;;;;;4988878;28;20038;-86
2023/01/02 03:07:15;;;;;;;1.83;1.15;;;;;;;;;;4989787;28;20053;-85
2023/01/02 03:09:57;;;;;;;2.70;1.00;;;;;;;;;;4991731;28;20054;-88
2023/01/02 03:12:39;;;;;;;1.90;1.23;;;;;;;;;;4974931;28;20031;-88
2023/01/02 03:15:26;;;;;;;1.60;1.20;;;;;;;;;;4973943;28;20035;-88
2023/01/02 03:17:57;;;;;;;1.52;1.08;;;;;;;;;;4988811;28;20411;-88
2023/01/02 03:20:27;;;;;;;1.40;0.98;;;;;;;;;;4974174;28;20058;-87
2023/01/02 03:23:00;;;;;;;1.60;1.10;;;;;;;;;;4974107;28;20061;-87
2023/01/02 03:25:25;;;;;;;1.45;1.02;;;;;;;;;;4972193;28;20074;-88
2023/01/02 03:27:57;;;;;;;2.03;1.10;;;;;;;;;;4972538;28;20514;-87
2023/01/02 03:30:23;;;;;;;1.75;1.20;;;;;;;;;;4989187;28;20035;-88
2023/01/02 03:33:12;;;;;;;2.28;1.23;;;;;;;;;;4973868;28;20031;-87
2023/01/02 03:35:47;;;;;;;2.10;1.25;;;;;;;;;;4988169;28;20043;-87
2023/01/02 03:38:24;;;;;;;3.00;1.30;;;;;;;;;;4973789;28;20034;-87
2023/01/02 03:41:14;;;;;;;1.95;1.10;;;;;;;;;;4972582;28;20062;-88
2023/01/02 03:43:41;;;;;;;2.45;0.90;;;;;;;;;;4973034;28;20042;-86
2023/01/02 03:46:09;;;;;;;1.73;1.00;;;;;;;;;;4973080;28;20516;-87
2023/01/02 03:48:44;;;;;;;1.73;1.00;;;;;;;;;;4973441;28;20731;-86
2023/01/02 03:51:09;;;;;;;1.80;1.02;;;;;;;;;;4973880;28;20034;-86
2023/01/02 03:53:38;;;;;;;1.42;0.93;;;;;;;;;;4973617;28;20551;-86
2023/01/02 03:56:22;;;;;;;1.83;0.88;;;;;;;;;;4972970;28;20065;-85
2023/01/02 03:59:03;;;;;;;1.35;0.93;;;;;;;;;;4998686;28;20019;-87
2023/01/02 04:01:55;;;;;;;4.07;1.10;;;;;;;;;;4989408;28;20034;-85
2023/01/02 04:04:36;;;;;;;2.70;1.20;;;;;;;;;;4968986;28;20055;-85
2023/01/02 04:07:05;;;;;;;1.90;1.20;;;;;;;;;;4977206;28;20066;-86
2023/01/02 04:09:32;;;;;;;2.05;1.10;;;;;;;;;;4977651;28;20069;-88
2023/01/02 04:12:02;;;;;;;1.85;1.20;;;;;;;;;;4972174;28;20038;-86
2023/01/02 04:14:36;;;;;;;1.98;1.17;;;;;;;;;;4973054;28;20082;-86
2023/01/02 04:17:07;;;;;;;1.77;1.10;;;;;;;;;;4973431;28;20656;-87
2023/01/02 04:19:47;;;;;;;2.55;1.20;;;;;;;;;;4973387;28;20101;-85
2023/01/02 04:22:19;;;;;;;2.70;1.80;;;;;;;;;;4988338;28;20031;-85
2023/01/02 04:24:51;;;;;;;1.30;1.00;;;;;;;;;;4987962;28;20035;-87
2023/01/02 04:27:26;;;;;;;2.63;1.17;;;;;;;;;;4973374;28;20031;-86
2023/01/02 04:29:52;;;;;;;2.95;1.10;;;;;;;;;;4974969;28;20410;-85
2023/01/02 04:32:21;;;;;;;1.50;1.05;;;;;;;;;;4977353;28;20109;-85
2023/01/02 04:34:48;;;;;;;1.05;0.95;;;;;;;;;;4975471;28;20121;-86
2023/01/02 04:37:27;;;;;;;1.30;1.00;;;;;;;;;;4977100;28;20479;-86
2023/01/02 04:39:57;;;;;;;1.60;1.10;;;;;;;;;;4992006;28;20514;-86
2023/01/02 04:42:22;;;;;;;1.95;1.00;;;;;;;;;;4977230;28;20038;-87
2023/01/02 04:44:48;;;;;;;4.32;1.15;;;;;;;;;;4976499;28;20094;-86
2023/01/02 04:47:13;;;;;;;2.10;1.20;;;;;;;;;;4977056;28;20551;-86
2023/01/02 04:49:39;;;;;;;1.38;1.02;;;;;;;;;;4975872;28;20038;-86
2023/01/02 04:52:04;;;;;;;1.52;1.10;;;;;;;;;;4975742;28;20039;-86
2023/01/02 04:54:30;;;;;;;3.58;1.10;;;;;;;;;;4975085;28;20097;-85
2023/01/02 04:56:55;;;;;;;1.40;1.00;;;;;;;;;;4976721;28;20047;-85
2023/01/02 04:59:20;;;;;;;3.35;1.00;;;;;;;;;;4976635;28;20126;-87
2023/01/02 05:01:46;;;;;;;1.20;1.00;;;;;;;;;;4976877;28;20110;-85
2023/01/02 05:04:11;;;;;;;1.58;1.10;;;;;;;;;;4974748;28;20491;-87
2023/01/02 05:06:37;;;;;;;1.85;1.10;;;;;;;;;;4977558;28;20451;-87
2023/01/02 05:09:02;;;;;;;1.77;1.00;;;;;;;;;;5000905;28;20205;-88
2023/01/02 05:11:28;;;;;;;1.90;1.30;;;;;;;;;;4991947;28;20034;-86
2023/01/02 05:13:53;;;;;;;2.03;1.20;;;;;;;;;;4987359;28;20042;-87
2023/01/02 05:16:19;;;;;;;1.70;1.10;;;;;;;;;;4974926;28;20063;-85
2023/01/02 05:18:44;;;;;;;1.50;1.08;;;;;;;;;;5002879;23;20392;-86
2023/01/02 05:23:58;;;;;;;1.08;0.98;;;;;;;;;;5029573;28;20065;-86
2023/01/02 05:26:24;;;;;;;1.42;1.00;;;;;;;;;;5027719;28;20038;-86
2023/01/02 05:28:53;;;;;;;1.15;1.00;;;;;;;;;;5029069;28;20080;-85
2023/01/02 05:31:20;;;;;;;2.25;1.45;;;;;;;;;;5029085;28;20034;-87
2023/01/02 05:33:53;;;;;;;1.52;1.00;;;;;;;;;;5029071;28;20037;-87
2023/01/02 05:36:18;;;;;;;3.50;1.10;;;;;;;;;;5026969;28;20580;-86
2023/01/02 05:38:43;;;;;;;1.40;0.98;;;;;;;;;;5028609;28;20483;-86
2023/01/02 05:41:09;;;;;;;2.90;1.15;;;;;;;;;;5027993;28;20038;-87
2023/01/02 05:43:36;;;;;;;1.83;1.20;;;;;;;;;;5011651;28;20065;-87
2023/01/02 05:46:10;;;;;;;1.88;1.08;;;;;;;;;;5027997;28;20030;-86
2023/01/02 05:48:36;;;;;;;2.97;1.25;;;;;;;;;;5026856;28;20030;-86
2023/01/02 05:51:04;;;;;;;1.67;1.15;;;;;;;;;;5028920;28;20038;-86
2023/01/02 05:53:29;;;;;;;1.95;1.20;;;;;;;;;;5011618;28;20022;-87
2023/01/02 05:56:12;;;;;;;2.85;1.60;;;;;;;;;;5026264;28;20037;-86
2023/01/02 05:58:40;;;;;;;2.75;1.58;;;;;;;;;;5025842;28;20057;-86
2023/01/02 06:01:16;;;;;;;2.55;1.38;;;;;;;;;;5028157;28;20041;-86
2023/01/02 06:03:45;;;;;;;3.05;1.80;;;;;;;;;;5026821;28;20041;-85
2023/01/02 06:06:11;;;;;;;2.33;1.50;;;;;;;;;;5025950;28;20044;-86
2023/01/02 06:08:37;;;;;;;1.58;1.10;;;;;;;;;;5026368;28;20423;-85
2023/01/02 06:11:04;;;;;;;2.10;1.27;;;;;;;;;;5027961;28;20062;-86
2023/01/02 06:13:31;;;;;;;1.83;1.23;;;;;;;;;;5028924;28;20782;-86
2023/01/02 06:15:58;;;;;;;2.13;1.20;;;;;;;;;;5025993;28;20034;-86
2023/01/02 06:18:24;;;;;;;2.70;1.40;;;;;;;;;;5010327;28;20022;-86
2023/01/02 06:20:50;;;;;;;1.90;1.10;;;;;;;;;;5026627;28;20038;-87
2023/01/02 06:23:15;;;;;;;2.22;1.30;;;;;;;;;;5010559;28;20064;-86
2023/01/02 06:25:41;;;;;;;1.30;1.05;;;;;;;;;;5025106;28;20088;-85
2023/01/02 06:28:07;;;;;;;3.25;1.60;;;;;;;;;;5026234;28;20046;-86
2023/01/02 06:30:32;;;;;;;1.30;1.05;;;;;;;;;;5026279;28;20114;-85
2023/01/02 06:32:59;;;;;;;1.08;0.90;;;;;;;;;;5026544;28;20029;-87
2023/01/02 06:35:25;;;;;;;1.33;1.02;;;;;;;;;;5009438;28;20034;-87
2023/01/02 06:37:50;;;;;;;1.98;1.30;;;;;;;;;;5025117;28;20473;-86
2023/01/02 06:40:16;;;;;;;2.42;1.00;;;;;;;;;;5025507;28;20021;-85
2023/01/02 06:42:45;;;;;;;1.63;1.00;;;;;;;;;;5026381;28;20511;-87
2023/01/02 06:45:11;;;;;;;2.03;1.00;;;;;;;;;;5027138;28;20483;-87
2023/01/02 06:47:37;;;;;;;1.33;1.02;;;;;;;;;;5026950;28;20048;-86
2023/01/02 06:50:02;;;;;;;2.03;1.05;;;;;;;;;;5025888;28;20486;-85
2023/01/02 06:52:28;;;;;;;1.92;1.00;;;;;;;;;;5025288;28;20025;-86
2023/01/02 06:54:54;;;;;;;2.08;1.05;;;;;;;;;;5045392;28;20496;-87
2023/01/02 06:57:19;;;;;;;1.67;1.00;;;;;;;;;;5028029;28;20037;-86
2023/01/02 06:59:45;;;;;;;1.77;1.10;;;;;;;;;;5046025;28;20048;-85
2023/01/02 07:02:11;;;;;;;2.85;1.20;;;;;;;;;;5044692;28;20544;-86
2023/01/02 07:04:37;;;;;;;1.60;1.10;;;;;;;;;;5043996;28;20789;-86
2023/01/02 07:07:03;;;;;;;3.33;1.00;;;;;;;;;;5042392;28;20073;-85
2023/01/02 07:09:29;;;;;;;3.50;1.00;;;;;;;;;;5044594;28;20026;-86
2023/01/02 07:11:55;;;;;;;1.33;1.10;;;;;;;;;;5045563;28;20498;-86
2023/01/02 07:14:20;;;;;;;1.83;1.17;;;;;;;;;;5044242;28;20043;-86
2023/01/02 07:16:46;;;;;;;1.90;1.00;;;;;;;;;;5042823;28;20061;-85
2023/01/02 07:19:11;;;;;;;2.22;1.00;;;;;;;;;;5041708;28;20041;-84
2023/01/02 07:21:37;;;;;;;1.38;1.20;;;;;;;;;;5037440;28;20553;-86
2023/01/02 07:24:02;;;;;;;1.60;1.00;;;;;;;;;;5037210;28;20556;-87
2023/01/02 07:26:28;;;;;;;3.03;1.30;;;;;;;;;;5037359;28;20033;-85
2023/01/02 07:28:53;;;;;;;1.65;1.05;;;;;;;;;;5035888;28;20505;-86
2023/01/02 07:31:19;;;;;;;2.03;1.10;;;;;;;;;;5021029;28;20080;-85
2023/01/02 07:33:45;;;;;;;1.73;1.15;;;;;;;;;;5019278;28;20091;-85
2023/01/02 07:36:13;;;;;;;1.27;0.88;;;;;;;;;;5022155;28;20037;-85
2023/01/02 07:38:39;;;;;;;2.65;1.40;;;;;;;;;;5024327;28;20037;-85
2023/01/02 07:41:12;;;;;;;1.85;1.20;;;;;;;;;;5022560;28;20064;-87
2023/01/02 07:43:37;;;;;;;1.73;1.30;;;;;;;;;;5024285;28;20038;-87
2023/01/02 07:46:03;;;;;;;1.90;1.10;;;;;;;;;;5024128;28;20034;-86
2023/01/02 07:48:30;;;;;;;1.60;1.00;;;;;;;;;;5007425;28;20041;-87
2023/01/02 07:51:00;;;;;;;1.88;1.10;;;;;;;;;;5024181;28;20120;-86
2023/01/02 07:53:26;;;;;;;1.40;1.00;;;;;;;;;;5021463;28;20042;-87
2023/01/02 07:55:53;;;;;;;1.45;0.98;;;;;;;;;;5024133;28;20082;-87
2023/01/02 07:58:19;;;;;;;1.77;1.05;;;;;;;;;;5022970;28;20048;-87
2023/01/02 08:00:45;;;;;;;1.15;1.00;;;;;;;;;;5027769;28;20025;-85
2023/01/02 08:03:10;;;;;;;1.73;1.00;;;;;;;;;;5040735;28;20091;-86
2023/01/02 08:05:35;;;;;;;1.77;1.30;;;;;;;;;;5041310;28;20029;-88
2023/01/02 08:08:01;;;;;;;1.50;1.10;;;;;;;;;;5041677;28;20060;-86
2023/01/02 08:10:26;;;;;;;2.22;1.20;;;;;;;;;;5041023;28;20092;-86
2023/01/02 08:12:52;;;;;;;3.10;1.10;;;;;;;;;;5041835;28;20048;-87
2023/01/02 08:15:17;;;;;;;1.38;1.00;;;;;;;;;;5039712;28;20494;-85
2023/01/02 08:17:43;;;;;;;1.38;1.00;;;;;;;;;;5041079;28;20280;-86
2023/01/02 08:20:09;;;;;;;2.67;1.33;;;;;;;;;;5040646;28;20524;-87
2023/01/02 08:22:36;;;;;;;1.48;1.00;;;;;;;;;;5043070;28;20049;-86
2023/01/02 08:25:02;;;;;;;1.42;1.10;;;;;;;;;;5040086;28;20033;-86
2023/01/02 08:27:27;;;;;;;1.20;0.90;;;;;;;;;;5041148;28;20033;-86
2023/01/02 08:29:53;;;;;;;2.33;1.10;;;;;;;;;;5024374;28;20048;-87
2023/01/02 08:32:18;;;;;;;1.33;1.00;;;;;;;;;;5040334;28;20022;-88
2023/01/02 08:34:44;;;;;;;2.53;1.00;;;;;;;;;;5039348;28;20025;-85
2023/01/02 08:37:09;;;;;;;2.25;0.85;;;;;;;;;;5041584;28;20402;-86
2023/01/02 08:39:34;;;;;;;1.50;1.00;;;;;;;;;;5041616;28;20041;-85
2023/01/02 08:42:00;;;;;;;1.60;1.10;;;;;;;;;;5039945;28;20041;-86
2023/01/02 08:44:25;;;;;;;2.25;1.20;;;;;;;;;;5028944;28;20042;-86
2023/01/02 08:46:51;;;;;;;2.00;1.20;;;;;;;;;;5020333;28;20030;-87
2023/01/02 08:49:16;;;;;;;1.55;0.93;;;;;;;;;;5020616;28;20070;-84
2023/01/02 08:51:42;;;;;;;1.23;0.88;;;;;;;;;;5020377;28;20026;-86
2023/01/02 08:54:07;;;;;;;1.45;1.05;;;;;;;;;;5002753;28;20125;-85
2023/01/02 08:56:34;;;;;;;1.85;1.00;;;;;;;;;;5020599;28;20022;-87
2023/01/02 08:59:08;;;;;;;2.58;0.95;;;;;;;;;;5021632;28;20052;-86
2023/01/02 09:01:34;;;;;;;2.67;0.80;;;;;;;;;;5018988;28;20038;-87
2023/01/02 09:04:00;;;;;;;1.35;0.93;;;;;;;;;;5017483;28;20371;-85
2023/01/02 09:06:27;;;;;;;2.00;0.93;;;;;;;;;;5018911;28;20034;-84
2023/01/02 09:08:55;;;;;;;1.30;1.00;;;;;;;;;;5001344;28;20045;-85
2023/01/02 09:11:25;;;;;;;2.25;0.80;;;;;;;;;;5018431;28;20038;-85
2023/01/02 09:13:51;;;;;;;2.17;1.00;;;;;;;;;;5020313;28;20056;-85
2023/01/02 09:16:19;;;;;;;1.40;1.00;;;;;;;;;;5020612;28;20018;-85
2023/01/02 09:18:44;;;;;;;2.70;1.50;;;;;;;;;;5022460;28;20034;-86
2023/01/02 09:21:10;;;;;;;2.42;0.90;;;;;;;;;;5022458;28;20048;-86
2023/01/02 09:23:35;;;;;;;1.48;0.90;;;;;;;;;;5022147;28;20037;-86
2023/01/02 09:26:03;;;;;;;5.55;2.17;;;;;;;;;;5020683;28;20030;-85
2023/01/02 09:28:30;;;;;;;3.67;1.20;;;;;;;;;;5021551;28;20057;-85
2023/01/02 09:30:56;;;;;;;1.58;1.02;;;;;;;;;;5022825;28;20026;-87
2023/01/02 09:33:22;;;;;;;5.45;1.10;;;;;;;;;;5018427;28;20291;-87
2023/01/02 09:35:47;;;;;;;4.50;1.13;;;;;;;;;;5019833;28;20061;-84
2023/01/02 09:38:14;;;;;;;1.40;0.98;;;;;;;;;;5005048;28;20033;-85
2023/01/02 09:40:52;;;;;;;1.77;1.02;;;;;;;;;;5022545;28;20502;-86
2023/01/02 09:43:37;;;;;;;2.50;1.40;;;;;;;;;;5023121;28;20041;-85
2023/01/02 09:46:05;;;;;;;1.92;1.10;;;;;;;;;;5022394;28;20045;-85
2023/01/02 09:48:35;;;;;;;1.70;0.98;;;;;;;;;;5004757;28;20034;-86
2023/01/02 09:51:02;;;;;;;1.00;0.80;;;;;;;;;;5021833;28;20430;-86
2023/01/02 09:53:28;;;;;;;4.03;0.98;;;;;;;;;;5023808;28;20038;-86
2023/01/02 09:55:54;;;;;;;3.83;1.20;;;;;;;;;;5022583;28;20041;-84
2023/01/02 09:58:50;;;;;;;1.92;1.15;;;;;;;;;;5020624;28;20137;-86
2023/01/02 10:01:56;;;;;;;2.47;0.88;;;;;;;;;;5005147;28;20410;-86
2023/01/02 10:04:40;;;;;;;1.45;0.85;;;;;;;;;;4953524;28;20057;-85
2023/01/02 10:07:12;;;;;;;;;;;;;;;;;;5021220;28;20034;-85
2023/01/02 10:09:44;;;;;;;0.65;0.55;;;;;;;;;;5005189;28;19968;-86
2023/01/02 10:12:19;;;;;;;3.97;0.80;;;;;;;;;;5004404;28;20073;-86
2023/01/02 10:14:52;;;;;;;1.10;0.70;;;;;;;;;;5007854;28;20034;-85
2023/01/02 10:17:18;;;;;;;1.17;0.70;;;;;;;;;;5004774;28;20038;-84
2023/01/02 10:19:49;;;;;;;0.82;0.70;;;;;;;;;;5019791;28;20026;-85
2023/01/02 10:22:20;;;;;;;1.10;0.73;;;;;;;;;;5002781;28;20074;-85
2023/01/02 10:25:01;;;;;;;1.77;0.85;;;;;;;;;;5001968;28;20098;-85
2023/01/02 10:27:40;;;;;;;1.40;0.85;;;;;;;;;;5002108;28;20041;-86
2023/01/02 10:30:18;;;;;;;1.63;0.80;;;;;;;;;;5004221;28;20038;-85
2023/01/02 10:32:50;;;;;;;1.33;0.85;;;;;;;;;;5002226;28;20096;-87
2023/01/02 10:35:28;;;;;;;1.42;0.90;;;;;;;;;;5017313;28;20046;-85
2023/01/02 10:37:55;;;;;;;1.80;0.82;;;;;;;;;;5019134;28;20038;-86
2023/01/02 10:40:21;;;;;;;3.10;0.80;;;;;;;;;;5002248;28;20602;-86
2023/01/02 10:42:53;;;;;;;3.05;0.90;;;;;;;;;;5018089;28;20042;-84
2023/01/02 10:45:19;;;;;;;1.00;0.80;;;;;;;;;;5000528;28;20061;-85
2023/01/02 10:47:45;;;;;;;0.68;0.68;;;;;;;;;;5017907;28;20090;-86
2023/01/02 10:50:18;;;;;;;3.03;1.40;;;;;;;;;;5002306;28;20038;-86
2023/01/02 10:53:03;;;;;;;1.38;1.00;;;;;;;;;;5018210;28;20026;-84
2023/01/02 10:55:41;;;;;;;2.60;0.80;;;;;;;;;;5014966;28;20070;-85
2023/01/02 10:58:26;;;;;;;1.00;0.80;;;;;;;;;;5000755;28;20129;-85
2023/01/02 11:01:17;;;;;;;1.67;1.00;;;;;;;;;;5021510;28;20028;-84
2023/01/02 11:03:44;;;;;;;2.35;0.90;;;;;;;;;;5027003;28;20040;-84
2023/01/02 11:06:29;;;;;;;1.45;0.93;;;;;;;;;;5033174;28;20040;-86
2023/01/02 11:08:56;;;;;;;2.67;1.02;;;;;;;;;;5039669;28;20253;-84
2023/01/02 11:11:23;;;;;;;1.10;0.93;;;;;;;;;;5036211;28;20075;-86
2023/01/02 11:13:51;;;;;;;2.88;0.80;;;;;;;;;;5017939;28;20076;-85
2023/01/02 11:16:18;;;;;;;1.35;0.80;;;;;;;;;;5037509;28;20041;-83
2023/01/02 11:18:57;;;;;;;1.35;0.90;;;;;;;;;;5039559;28;20087;-85
2023/01/02 11:21:26;;;;;;;1.88;0.70;;;;;;;;;;5041349;28;20072;-85
2023/01/02 11:23:58;;;;;;;1.65;1.00;;;;;;;;;;5041571;28;20040;-84
2023/01/02 11:26:25;;;;;;;1.33;0.90;;;;;;;;;;5040428;28;20037;-86
2023/01/02 11:28:53;;;;;;;1.52;0.95;;;;;;;;;;5039019;28;20040;-85
2023/01/02 11:31:20;;;;;;;1.23;0.80;;;;;;;;;;5020817;28;20462;-85
2023/01/02 11:33:46;;;;;;;1.80;0.95;;;;;;;;;;5038971;28;20478;-85
2023/01/02 11:36:11;;;;;;;1.05;0.90;;;;;;;;;;5026345;28;20037;-85
2023/01/02 11:38:47;;;;;;;1.58;1.05;;;;;;;;;;5030219;28;20049;-86
2023/01/02 11:44:34;;;;;;;1.58;0.90;;;;;;;;;;5025368;28;20041;-85
2023/01/02 11:47:02;;;;;;;1.33;0.90;;;;;;;;;;5002372;28;20037;-84
2023/01/02 11:49:38;;;;;;;1.55;0.80;;;;;;;;;;5018480;28;20042;-85
2023/01/02 11:52:05;;;;;;;1.55;0.98;;;;;;;;;;5027664;28;20038;-85
2023/01/02 11:55:09;;;;;;;1.10;0.90;;;;;;;;;;4980128;28;20538;-86
2023/01/02 11:57:42;;;;;;;3.90;1.30;;;;;;;;;;4979065;28;20026;-85
2023/01/02 12:00:14;;;;;;;1.98;1.00;;;;;;;;;;5025353;28;20061;-85
2023/01/02 12:02:43;;;;;;;1.05;0.90;;;;;;;;;;5037237;28;20045;-87
2023/01/02 12:05:22;;;;;;;1.80;1.20;;;;;;;;;;5032248;28;20057;-89
2023/01/02 12:08:00;;;;;;;3.00;1.63;;;;;;;;;;5033824;28;20044;-88
2023/01/02 12:10:25;;;;;;;1.25;1.00;;;;;;;;;;5034064;28;20029;-87
2023/01/02 12:12:59;;;;;;;695.95;282.30;;;;;;;;;;5034778;28;20040;-81
2023/01/02 12:15:30;;;;;;;837.70;290.73;;;;;;;;;;5033568;28;20504;-86
2023/01/02 12:18:11;;;;;;;79.65;24.25;;;;;;;;;;5035374;28;20041;-89
2023/01/02 12:21:01;;;;;;;5.43;1.38;;;;;;;;;;5035710;28;20045;-87
2023/01/02 12:23:43;;;;;;;1.55;1.05;;;;;;;;;;5035108;28;20038;-89
2023/01/02 12:26:23;;;;;;;1.65;1.13;;;;;;;;;;5037307;28;20045;-88
2023/01/02 12:29:15;;;;;;;1.80;1.30;;;;;;;;;;5035760;28;20133;-88
2023/01/02 12:31:52;;;;;;;4.20;1.20;;;;;;;;;;5025745;28;20056;-88
2023/01/02 12:34:48;;;;;;;2.10;1.20;;;;;;;;;;5016605;28;20030;-89
2023/01/02 12:37:52;;;;;;;2.22;1.40;;;;;;;;;;5009155;28;20057;-87
2023/01/02 12:40:18;;;;;;;1.80;1.17;;;;;;;;;;5020288;28;20475;-89
2023/01/02 12:42:52;;;;;;;2.17;1.50;;;;;;;;;;5013143;28;20104;-88
2023/01/02 12:45:31;;;;;;;3.83;1.60;;;;;;;;;;5021582;28;20112;-88
2023/01/02 12:48:09;;;;;;;2.20;1.08;;;;;;;;;;5020497;28;20030;-88
2023/01/02 12:50:50;;;;;;;2.60;1.67;;;;;;;;;;5014324;28;20042;-87
2023/01/02 12:53:37;;;;;;;3.35;1.70;;;;;;;;;;4999245;28;20037;-88
2023/01/02 12:56:16;;;;;;;3.85;1.75;;;;;;;;;;4996906;28;20034;-88
2023/01/02 12:59:00;;;;;;;3.13;1.40;;;;;;;;;;4998506;28;20034;-88
2023/01/02 13:01:53;;;;;;;1.60;1.10;;;;;;;;;;4998535;28;20034;-88
2023/01/02 13:04:24;;;;;;;1.98;1.20;;;;;;;;;;4996359;28;20541;-88
2023/01/02 13:07:02;;;;;;;2.10;1.20;;;;;;;;;;4998431;28;20041;-89
2023/01/02 13:09:36;;;;;;;3.25;1.15;;;;;;;;;;4995016;28;20499;-88
2023/01/02 13:12:18;;;;;;;4.03;2.05;;;;;;;;;;5013072;28;20045;-89
2023/01/02 13:14:56;;;;;;;3.83;2.22;;;;;;;;;;5012540;28;20407;-88
2023/01/02 13:17:40;;;;;;;3.63;2.55;;;;;;;;;;4996698;28;20034;-88
2023/01/02 13:20:24;;;;;;;3.72;2.10;;;;;;;;;;5002629;28;20033;-86
2023/01/02 13:22:53;;;;;;;2.97;2.08;;;;;;;;;;5017760;28;20562;-88
2023/01/02 13:25:19;;;;;;;4.03;2.25;;;;;;;;;;5019103;28;20048;-88
2023/01/02 13:27:46;;;;;;;3.38;2.35;;;;;;;;;;5018995;28;20093;-87
2023/01/02 13:30:30;;;;;;;4.40;2.42;;;;;;;;;;5019393;28;20029;-88
2023/01/02 13:32:56;;;;;;;4.00;2.17;;;;;;;;;;5019929;28;20046;-87
2023/01/02 13:35:22;;;;;;;3.85;2.38;;;;;;;;;;5016286;28;20026;-86
2023/01/02 13:37:52;;;;;;;3.70;2.22;;;;;;;;;;5019441;28;20349;-87
2023/01/02 13:40:26;;;;;;;5.68;2.30;;;;;;;;;;5019657;28;20121;-87
2023/01/02 13:42:57;;;;;;;6.38;2.40;;;;;;;;;;5017020;28;20036;-88
2023/01/02 13:45:54;;;;;;;7.75;3.38;;;;;;;;;;5004974;28;20561;-88
2023/01/02 13:48:45;;;;;;;6.75;3.45;;;;;;;;;;5031967;28;20094;-87
2023/01/02 13:51:11;;;;;;;5.10;2.60;;;;;;;;;;5036314;28;20036;-88
2023/01/02 13:53:44;;;;;;;7.38;2.75;;;;;;;;;;5020042;28;20037;-86
2023/01/02 13:56:15;;;;;;;3.60;2.30;;;;;;;;;;5019114;28;20032;-88
2023/01/02 13:58:46;;;;;;;4.63;2.38;;;;;;;;;;5038687;28;20616;-87
2023/01/02 14:01:21;;;;;;;6.10;2.55;;;;;;;;;;5035969;28;20082;-87
2023/01/02 14:04:14;;;;;;;4.03;2.00;;;;;;;;;;5038528;28;20033;-86
2023/01/02 14:06:48;;;;;;;4.43;1.90;;;;;;;;;;5015253;28;20176;-87
2023/01/02 14:09:17;;;;;;;;;;;;;;;;;;5038447;28;20034;-88
2023/01/02 14:11:49;;;;;;;8.48;4.47;;;;;;;;;;5036041;28;19924;-87
2023/01/02 14:14:24;;;;;;;6.25;2.80;;;;;;;;;;5033403;28;20048;-89
2023/01/02 14:17:17;;;;;;;5.00;2.65;;;;;;;;;;5036940;28;20041;-88
2023/01/02 14:19:44;;;;;;;4.47;2.33;;;;;;;;;;5039346;28;20033;-87
2023/01/02 14:22:15;;;;;;;4.03;2.20;;;;;;;;;;5040080;28;20037;-88
2023/01/02 14:24:40;;;;;;;3.88;1.88;;;;;;;;;;5040071;28;20098;-86
2023/01/02 14:27:15;;;;;;;4.65;2.10;;;;;;;;;;5040514;28;20534;-87
2023/01/02 14:29:53;;;;;;;11.18;6.15;;;;;;;;;;5035122;28;20029;-88
2023/01/02 14:32:21;;;;;;;5.45;3.33;;;;;;;;;;5021735;28;20057;-86
2023/01/02 14:34:51;;;;;;;8.45;4.22;;;;;;;;;;5015608;28;20030;-85
2023/01/02 14:37:32;;;;;;;4.28;2.72;;;;;;;;;;5019861;28;20034;-87
2023/01/02 14:40:10;;;;;;;3.20;2.17;;;;;;;;;;5010603;28;20056;-87
2023/01/02 14:45:23;;;;;;;11.93;6.57;;;;;;;;;;4995805;28;20038;-87
2023/01/02 14:47:57;;;;;;;10.60;5.13;;;;;;;;;;4999363;28;20413;-87
2023/01/02 14:50:28;;;;;;;6.90;4.10;;;;;;;;;;5006712;28;20038;-87
2023/01/02 14:53:34;;;;;;;7.10;4.10;;;;;;;;;;4999797;28;20531;-86
2023/01/02 14:56:15;;;;;;;9.90;3.92;;;;;;;;;;4919918;29;20039;-86
2023/01/02 14:58:43;;;;;;;7.70;4.03;;;;;;;;;;4937798;29;20035;-86
2023/01/02 15:01:11;;;;;;;7.13;4.05;;;;;;;;;;4948317;28;20148;-87
2023/01/02 15:03:55;;;;;;;7.20;4.20;;;;;;;;;;5020791;28;20032;-88
2023/01/02 15:06:27;;;;;;;8.23;4.13;;;;;;;;;;5017300;28;20160;-88
2023/01/02 15:08:59;;;;;;;8.20;4.63;;;;;;;;;;5035265;28;20045;-88
2023/01/02 15:14:15;;;;;;;7.72;4.55;;;;;;;;;;5034377;28;20033;-87
2023/01/02 15:16:50;;;;;;;7.00;4.43;;;;;;;;;;5034698;28;20048;-87
2023/01/02 15:19:21;;;;;;;11.73;6.60;;;;;;;;;;5035099;28;20048;-88